Time;durP1;ratioP1;P1;durP2;ratioP2;P2;SDS_P1;SDS_P2;PMS_P1;PMS_P2;Temp;Humidity;BMP_temperature;BMP_pressure;BME280_temperature;BME280_humidity;BME280_pressure;Samples;Min_cycle;Max_cycle;Signal;HPM_P1;HPM_P2
2022/08/17 00:01:56;;;;;;;9.50;6.15;;;17.10;99.90;;;;;;6156410;23;20065;-80
2022/08/17 00:04:21;;;;;;;10.73;5.60;;;17.10;99.90;;;;;;6154786;23;20010;-80
2022/08/17 00:06:48;;;;;;;9.23;5.88;;;17.10;99.90;;;;;;6156648;23;20001;-80
2022/08/17 00:09:14;;;;;;;8.30;6.25;;;17.10;99.90;;;;;;6154997;23;20012;-80
2022/08/17 00:11:43;;;;;;;6.95;6.00;;;17.10;99.90;;;;;;6156436;23;20005;-80
2022/08/17 00:14:13;;;;;;;8.18;6.35;;;17.10;99.90;;;;;;6155945;23;20009;-80
2022/08/17 00:16:49;;;;;;;7.82;5.60;;;17.20;99.90;;;;;;6154473;23;20005;-80
2022/08/17 00:19:21;;;;;;;10.38;6.45;;;17.20;99.90;;;;;;6155373;23;20385;-80
2022/08/17 00:21:49;;;;;;;7.22;6.53;;;17.20;99.90;;;;;;6155795;23;20431;-80
2022/08/17 00:24:16;;;;;;;10.55;6.68;;;17.30;99.90;;;;;;6153824;23;20016;-80
2022/08/17 00:26:42;;;;;;;6.90;6.20;;;17.40;99.90;;;;;;6153837;23;20017;-80
2022/08/17 00:29:08;;;;;;;6.65;6.05;;;17.40;99.90;;;;;;6153786;23;20515;-80
2022/08/17 00:31:34;;;;;;;13.30;6.30;;;17.40;99.90;;;;;;6155188;23;20484;-81
2022/08/17 00:34:00;;;;;;;12.30;6.30;;;17.50;99.90;;;;;;6154507;23;20016;-80
2022/08/17 00:36:26;;;;;;;11.77;6.00;;;17.40;99.90;;;;;;6155569;23;20005;-81
2022/08/17 00:38:52;;;;;;;6.90;6.00;;;17.40;99.90;;;;;;6154126;23;20061;-80
2022/08/17 00:41:21;;;;;;;7.85;6.28;;;17.50;99.90;;;;;;6156072;23;20013;-80
2022/08/17 00:44:00;;;;;;;7.90;6.07;;;17.40;99.90;;;;;;6154106;23;20010;-80
2022/08/17 00:46:30;;;;;;;8.10;5.70;;;17.50;99.90;;;;;;6154423;23;20009;-81
2022/08/17 00:48:55;;;;;;;7.75;6.22;;;17.50;99.90;;;;;;6154516;23;20382;-80
2022/08/17 00:51:39;;;;;;;6.72;5.43;;;17.50;99.90;;;;;;6154423;23;20001;-80
2022/08/17 00:54:10;;;;;;;7.20;5.60;;;17.50;99.90;;;;;;6155347;23;20005;-80
2022/08/17 00:56:45;;;;;;;9.02;5.72;;;17.50;99.90;;;;;;6156070;23;20012;-80
2022/08/17 00:59:16;;;;;;;10.48;5.70;;;17.60;99.90;;;;;;6154709;23;20037;-80
2022/08/17 01:01:42;;;;;;;9.35;5.78;;;17.60;99.90;;;;;;6156286;23;20009;-80
2022/08/17 01:04:11;;;;;;;7.38;5.18;;;17.70;99.90;;;;;;6154158;23;20434;-80
2022/08/17 01:06:38;;;;;;;7.05;5.60;;;17.70;99.90;;;;;;6155935;23;20002;-80
2022/08/17 01:09:04;;;;;;;13.43;6.18;;;17.80;99.90;;;;;;6154367;23;20015;-80
2022/08/17 01:11:31;;;;;;;8.43;4.97;;;17.80;99.90;;;;;;6154725;23;20006;-80
2022/08/17 01:13:57;;;;;;;8.57;5.57;;;17.80;99.90;;;;;;6155841;23;20009;-80
2022/08/17 01:16:29;;;;;;;7.97;5.40;;;17.80;99.90;;;;;;6155828;23;20385;-80
2022/08/17 01:19:34;;;;;;;9.65;5.53;;;17.80;99.90;;;;;;6155726;23;20081;-80
2022/08/17 01:22:22;;;;;;;8.88;5.05;;;17.70;99.90;;;;;;6154077;23;20604;-81
2022/08/17 01:25:00;;;;;;;9.88;5.97;;;17.60;99.90;;;;;;6153984;23;20045;-80
2022/08/17 01:27:39;;;;;;;8.93;5.55;;;17.50;99.90;;;;;;6153621;23;20006;-80
2022/08/17 01:30:09;;;;;;;9.32;6.18;;;17.50;99.90;;;;;;6154940;23;20394;-80
2022/08/17 01:33:19;;;;;;;7.40;5.40;;;17.40;99.90;;;;;;6154071;23;20334;-80
2022/08/17 01:35:45;;;;;;;8.50;5.75;;;17.40;99.90;;;;;;6154977;23;20542;-80
2022/08/17 01:38:10;;;;;;;13.85;5.68;;;17.40;99.90;;;;;;6155629;23;20037;-80
2022/08/17 01:40:48;;;;;;;6.70;4.90;;;17.40;99.90;;;;;;6154345;23;20005;-80
2022/08/17 01:43:21;;;;;;;7.80;5.38;;;17.40;99.90;;;;;;6154412;23;20012;-80
2022/08/17 01:45:50;;;;;;;8.15;5.25;;;17.40;99.90;;;;;;6155873;23;20010;-80
2022/08/17 01:48:18;;;;;;;6.50;5.30;;;17.40;99.90;;;;;;6154073;23;20341;-80
2022/08/17 01:50:45;;;;;;;10.07;5.50;;;17.40;99.90;;;;;;6154217;23;20430;-80
2022/08/17 01:53:15;;;;;;;6.78;5.15;;;17.30;99.90;;;;;;6153677;23;20048;-80
2022/08/17 01:55:51;;;;;;;6.65;4.50;;;17.30;99.90;;;;;;6155619;23;20088;-80
2022/08/17 01:58:19;;;;;;;6.53;5.45;;;17.20;99.90;;;;;;6129556;23;20010;-81
2022/08/17 02:00:50;;;;;;;9.70;5.32;;;17.20;99.90;;;;;;6154924;23;20005;-80
2022/08/17 02:03:18;;;;;;;6.22;5.25;;;17.10;99.90;;;;;;6153850;23;20010;-80
2022/08/17 02:05:44;;;;;;;5.50;4.75;;;17.10;99.90;;;;;;6153420;23;20052;-80
2022/08/17 02:08:11;;;;;;;5.53;5.03;;;17.00;99.90;;;;;;6153691;23;20432;-80
2022/08/17 02:10:36;;;;;;;10.05;5.43;;;17.00;99.90;;;;;;6155337;23;20012;-80
2022/08/17 02:13:03;;;;;;;6.80;5.05;;;16.90;99.90;;;;;;6153702;23;20533;-80
2022/08/17 02:15:29;;;;;;;6.95;6.07;;;16.90;99.90;;;;;;6153761;23;20013;-80
2022/08/17 02:17:55;;;;;;;6.45;5.47;;;16.90;99.90;;;;;;6153906;23;20005;-80
2022/08/17 02:20:21;;;;;;;8.60;5.63;;;16.90;99.90;;;;;;6155382;23;20426;-80
2022/08/17 02:22:48;;;;;;;8.25;5.32;;;16.90;99.90;;;;;;6154009;23;20375;-80
2022/08/17 02:25:48;;;;;;;8.45;5.13;;;16.90;99.90;;;;;;6155187;23;20010;-80
2022/08/17 02:28:16;;;;;;;8.38;5.63;;;16.80;99.90;;;;;;6155377;23;20059;-80
2022/08/17 02:30:43;;;;;;;7.57;5.93;;;16.80;99.90;;;;;;6153994;23;20005;-80
2022/08/17 02:33:09;;;;;;;6.78;5.15;;;16.80;99.90;;;;;;6155002;23;20012;-80
2022/08/17 02:35:36;;;;;;;7.47;5.53;;;16.80;99.90;;;;;;6153189;23;20013;-80
2022/08/17 02:38:04;;;;;;;6.85;5.85;;;16.90;99.90;;;;;;6154011;23;20007;-80
2022/08/17 02:40:29;;;;;;;7.57;5.40;;;16.90;99.90;;;;;;6154362;23;20010;-80
2022/08/17 02:42:55;;;;;;;6.47;5.60;;;16.80;99.90;;;;;;6155291;23;20010;-80
2022/08/17 02:45:23;;;;;;;10.48;5.88;;;16.80;99.90;;;;;;6130971;23;20506;-80
2022/08/17 02:48:10;;;;;;;8.02;5.10;;;16.80;99.90;;;;;;6157380;23;20067;-80
2022/08/17 02:50:36;;;;;;;7.03;5.68;;;16.80;99.90;;;;;;6155481;23;20320;-80
2022/08/17 02:53:02;;;;;;;6.05;4.88;;;16.80;99.90;;;;;;6154925;23;20012;-80
2022/08/17 02:55:34;;;;;;;6.60;5.75;;;16.70;99.90;;;;;;6157064;23;20013;-80
2022/08/17 02:58:00;;;;;;;8.52;6.55;;;16.80;99.90;;;;;;6131330;23;20100;-80
2022/08/17 03:00:32;;;;;;;5.57;5.07;;;16.80;99.90;;;;;;6155754;23;20508;-80
2022/08/17 03:02:59;;;;;;;6.75;5.55;;;16.90;99.90;;;;;;6155568;23;20021;-80
2022/08/17 03:05:28;;;;;;;12.05;6.53;;;17.00;99.90;;;;;;6156775;23;20001;-80
2022/08/17 03:07:54;;;;;;;6.68;5.53;;;17.00;99.90;;;;;;6156676;23;20040;-80
2022/08/17 03:10:20;;;;;;;7.80;5.95;;;17.10;99.90;;;;;;6156306;23;20001;-80
2022/08/17 03:12:47;;;;;;;8.57;5.55;;;17.10;99.90;;;;;;6155195;23;20044;-80
2022/08/17 03:15:16;;;;;;;10.32;6.00;;;17.10;99.90;;;;;;6155344;23;20962;-80
2022/08/17 03:17:42;;;;;;;6.40;5.47;;;17.10;99.90;;;;;;6130586;23;20013;-80
2022/08/17 03:20:08;;;;;;;12.88;5.60;;;17.10;99.90;;;;;;6130819;23;20060;-80
2022/08/17 03:22:36;;;;;;;9.10;5.45;;;17.10;99.90;;;;;;6156753;23;20005;-80
2022/08/17 03:25:03;;;;;;;14.25;6.00;;;17.20;99.90;;;;;;6129998;23;20010;-80
2022/08/17 03:27:28;;;;;;;6.63;5.55;;;17.30;99.90;;;;;;6154779;23;20006;-80
2022/08/17 03:29:54;;;;;;;11.07;5.88;;;17.40;99.90;;;;;;6155275;23;20104;-80
2022/08/17 03:32:20;;;;;;;9.43;5.70;;;17.40;99.90;;;;;;6155319;23;20056;-80
2022/08/17 03:34:45;;;;;;;8.02;5.78;;;17.40;99.90;;;;;;6154104;23;20067;-80
2022/08/17 03:37:11;;;;;;;7.32;5.78;;;17.40;99.90;;;;;;6154934;23;20005;-80
2022/08/17 03:39:37;;;;;;;9.80;5.90;;;17.30;99.90;;;;;;6130330;23;20013;-80
2022/08/17 03:42:18;;;;;;;7.20;5.43;;;17.30;99.90;;;;;;6155003;23;20074;-80
2022/08/17 03:44:51;;;;;;;6.20;5.35;;;17.30;99.90;;;;;;6154317;23;20580;-80
2022/08/17 03:58:44;;;;;;;11.57;6.70;;;17.50;99.90;;;;;;6156533;23;20214;-80
2022/08/17 04:01:10;;;;;;;6.38;5.38;;;17.60;99.90;;;;;;6155343;23;20013;-80
2022/08/17 04:03:36;;;;;;;11.70;6.50;;;17.60;99.90;;;;;;6156370;23;20001;-80
2022/08/17 04:06:02;;;;;;;7.57;6.00;;;17.60;99.90;;;;;;6156768;23;20008;-80
2022/08/17 04:08:28;;;;;;;10.60;6.13;;;17.70;99.90;;;;;;6156343;23;20005;-80
2022/08/17 04:10:55;;;;;;;10.20;5.47;;;17.80;99.90;;;;;;6154755;23;20036;-80
2022/08/17 04:13:22;;;;;;;8.88;5.93;;;18.00;99.90;;;;;;6154479;23;20016;-80
2022/08/17 04:15:48;;;;;;;7.95;5.00;;;18.10;99.90;;;;;;6154991;23;20080;-80
2022/08/17 04:18:15;;;;;;;9.02;5.68;;;18.20;99.90;;;;;;6155716;23;20087;-82
2022/08/17 04:20:41;;;;;;;7.82;6.03;;;18.20;99.90;;;;;;6154109;23;20028;-81
2022/08/17 04:23:15;;;;;;;6.40;5.50;;;18.10;99.90;;;;;;6154431;23;20457;-81
2022/08/17 04:25:44;;;;;;;9.00;5.35;;;18.10;99.90;;;;;;6154052;23;20013;-81
2022/08/17 04:28:10;;;;;;;9.07;5.97;;;18.00;99.90;;;;;;6129787;23;20012;-81
2022/08/17 04:30:37;;;;;;;7.90;5.32;;;18.00;99.90;;;;;;6156099;23;20388;-81
2022/08/17 04:33:07;;;;;;;8.07;5.72;;;18.10;99.90;;;;;;6154327;23;20060;-81
2022/08/17 04:35:45;;;;;;;8.55;5.85;;;18.10;99.90;;;;;;6129738;23;20013;-81
2022/08/17 04:38:14;;;;;;;8.23;5.65;;;18.20;99.90;;;;;;6154233;23;20481;-81
2022/08/17 04:43:25;;;;;;;7.00;5.32;;;18.30;99.90;;;;;;6155621;23;20096;-81
2022/08/17 04:46:03;;;;;;;13.00;6.10;;;18.30;99.90;;;;;;6156221;23;20033;-81
2022/08/17 04:48:39;;;;;;;8.13;6.22;;;18.40;99.90;;;;;;6154316;23;20005;-81
2022/08/17 04:51:12;;;;;;;7.60;5.88;;;18.50;99.90;;;;;;6155479;23;20001;-81
2022/08/17 04:53:40;;;;;;;10.05;5.22;;;18.40;99.90;;;;;;6153602;23;20008;-81
2022/08/17 04:56:06;;;;;;;7.22;5.63;;;18.40;99.90;;;;;;6156144;23;20001;-81
2022/08/17 04:58:32;;;;;;;9.15;5.85;;;18.30;99.90;;;;;;6154839;23;20335;-81
2022/08/17 05:00:58;;;;;;;7.40;6.03;;;18.30;99.90;;;;;;6155996;23;20012;-81
2022/08/17 05:03:23;;;;;;;9.82;5.85;;;18.30;99.90;;;;;;6155412;23;20009;-81
2022/08/17 05:05:49;;;;;;;9.05;5.80;;;18.40;99.90;;;;;;6155974;23;20032;-81
2022/08/17 05:08:18;;;;;;;8.80;6.28;;;18.50;99.90;;;;;;6154606;23;20009;-81
2022/08/17 05:10:44;;;;;;;9.18;5.63;;;18.60;99.90;;;;;;6154254;23;20014;-81
2022/08/17 05:13:16;;;;;;;8.95;5.50;;;18.70;99.90;;;;;;6153983;23;20334;-81
2022/08/17 05:15:43;;;;;;;8.80;5.45;;;18.80;99.90;;;;;;6154072;23;20010;-81
2022/08/17 05:18:09;;;;;;;10.77;5.53;;;18.90;99.90;;;;;;6129375;23;20766;-81
2022/08/17 05:20:37;;;;;;;6.78;5.50;;;19.00;99.90;;;;;;6154273;23;20006;-81
2022/08/17 05:23:06;;;;;;;9.90;5.35;;;19.00;99.90;;;;;;6129479;23;20442;-81
2022/08/17 05:25:36;;;;;;;12.65;5.97;;;19.10;99.90;;;;;;6153716;23;20092;-81
2022/08/17 05:28:03;;;;;;;7.00;5.45;;;19.20;99.90;;;;;;6153179;23;20050;-81
2022/08/17 05:30:28;;;;;;;11.40;6.05;;;19.30;99.90;;;;;;6154000;23;20002;-81
2022/08/17 05:33:10;;;;;;;10.88;6.13;;;19.50;99.90;;;;;;6154043;23;20048;-81
2022/08/17 05:35:41;;;;;;;10.98;6.38;;;19.60;99.90;;;;;;6154007;23;20434;-81
2022/08/17 05:38:07;;;;;;;11.70;5.75;;;19.70;99.90;;;;;;6153622;23;20013;-81
2022/08/17 05:40:33;;;;;;;11.18;5.90;;;19.90;99.90;;;;;;6153831;23;20006;-81
2022/08/17 05:43:20;;;;;;;6.25;5.15;;;19.90;99.90;;;;;;6154849;23;20720;-81
2022/08/17 05:45:51;;;;;;;8.75;6.03;;;20.00;99.90;;;;;;6154340;23;20047;-81
2022/08/17 05:48:17;;;;;;;6.63;5.35;;;20.00;99.90;;;;;;6154518;23;20010;-81
2022/08/17 05:50:48;;;;;;;11.60;5.82;;;20.10;99.90;;;;;;6154608;23;20308;-81
2022/08/17 05:53:38;;;;;;;7.78;5.65;;;20.10;99.90;;;;;;6154035;23;20016;-81
2022/08/17 05:56:09;;;;;;;12.60;5.43;;;20.20;99.90;;;;;;6128848;23;20036;-81
2022/08/17 05:58:47;;;;;;;;;;;20.40;99.90;;;;;;6153973;23;20010;-81
2022/08/17 06:01:15;;;;;;;10.13;5.82;;;20.50;99.90;;;;;;6153090;23;19908;-81
2022/08/17 06:04:15;;;;;;;14.57;5.47;;;20.80;99.90;;;;;;6128380;23;20005;-81
2022/08/17 06:06:49;;;;;;;7.63;5.10;;;20.90;99.90;;;;;;6153024;23;20018;-81
2022/08/17 06:09:28;;;;;;;7.88;5.38;;;21.10;99.90;;;;;;6154086;23;20034;-81
2022/08/17 06:11:57;;;;;;;7.35;5.30;;;21.20;99.90;;;;;;6155240;23;20056;-81
2022/08/17 06:14:54;;;;;;;5.72;5.07;;;21.40;99.90;;;;;;6153043;23;20010;-81
2022/08/17 06:17:23;;;;;;;9.38;5.68;;;21.50;99.90;;;;;;6155739;23;20064;-81
2022/08/17 06:20:05;;;;;;;7.68;4.90;;;21.70;99.90;;;;;;6155353;23;20068;-82
2022/08/17 06:22:34;;;;;;;15.70;5.72;;;21.90;99.90;;;;;;6156273;23;20009;-82
2022/08/17 06:25:24;;;;;;;18.20;6.65;;;22.30;99.90;;;;;;6131256;23;20006;-82
2022/08/17 06:27:57;;;;;;;14.00;7.93;;;22.60;99.90;;;;;;6146517;23;20342;-82
2022/08/17 06:30:28;;;;;;;8.18;5.43;;;22.90;99.90;;;;;;6155560;23;20017;-81
2022/08/17 06:32:58;;;;;;;;;;;23.10;99.90;;;;;;6156045;23;20012;-82
2022/08/17 06:35:32;;;;;;;10.63;6.18;;;23.30;99.90;;;;;;6131089;23;19905;-82
2022/08/17 06:38:20;;;;;;;13.45;5.75;;;23.30;99.90;;;;;;6157058;23;20036;-81
2022/08/17 06:40:58;;;;;;;7.95;5.55;;;23.30;99.90;;;;;;6155957;23;20009;-89
2022/08/17 06:43:24;;;;;;;12.07;6.15;;;23.20;99.90;;;;;;6155697;23;20004;-90
2022/08/17 06:46:00;;;;;;;11.18;5.22;;;23.10;99.90;;;;;;6131257;23;20017;-89
2022/08/17 06:48:48;;;;;;;9.48;5.32;;;23.10;99.90;;;;;;6131265;23;20093;-89
2022/08/17 06:51:26;;;;;;;10.20;4.90;;;23.30;99.90;;;;;;6156280;23;20009;-91
2022/08/17 06:54:06;;;;;;;7.65;5.25;;;23.60;99.90;;;;;;6157450;23;20431;-90
2022/08/17 06:56:44;;;;;;;9.77;5.40;;;23.50;99.90;;;;;;6156543;23;20010;-89
2022/08/17 06:59:18;;;;;;;12.63;5.88;;;23.40;99.90;;;;;;6131528;23;20489;-90
2022/08/17 07:01:47;;;;;;;9.30;5.43;;;23.30;99.90;;;;;;6131541;23;20016;-89
2022/08/17 07:04:20;;;;;;;9.95;5.15;;;23.20;99.90;;;;;;6155760;23;20013;-90
2022/08/17 07:08:00;;;;;;;8.20;5.30;;;23.10;99.90;;;;;;6131637;23;20088;-89
2022/08/17 07:09:47;;;;;;;9.47;5.17;;;23.10;99.90;;;;;;6155829;23;20102;-90
2022/08/17 07:12:21;;;;;;;8.23;4.95;;;23.10;99.90;;;;;;6157562;23;20006;-89
2022/08/17 07:14:52;;;;;;;8.88;5.03;;;23.10;99.90;;;;;;6155924;23;20021;-90
2022/08/17 07:17:21;;;;;;;9.32;5.35;;;23.20;99.90;;;;;;6130653;23;20006;-90
2022/08/17 07:19:52;;;;;;;9.48;5.63;;;23.40;99.90;;;;;;6131128;23;20013;-89
2022/08/17 07:22:41;;;;;;;11.50;5.00;;;23.70;99.90;;;;;;6130766;23;20457;-89
2022/08/17 07:25:09;;;;;;;10.57;5.30;;;24.30;99.90;;;;;;6128021;23;20017;-89
2022/08/17 07:27:44;;;;;;;6.40;5.22;;;24.60;99.90;;;;;;6156678;23;20005;-90
2022/08/17 07:30:15;;;;;;;10.02;4.80;;;24.90;99.90;;;;;;6155585;23;20013;-90
2022/08/17 07:32:52;;;;;;;8.18;5.43;;;25.00;99.90;;;;;;6155374;23;20008;-90
2022/08/17 07:35:38;;;;;;;5.40;4.80;;;24.90;99.90;;;;;;6155141;23;20460;-90
2022/08/17 07:38:23;;;;;;;8.27;5.60;;;24.80;99.90;;;;;;6155525;23;20009;-89
2022/08/17 07:41:02;;;;;;;6.38;5.25;;;24.60;99.90;;;;;;6156112;23;20434;-90
2022/08/17 07:43:40;;;;;;;11.77;4.70;;;24.30;99.90;;;;;;6155763;23;20008;-90
2022/08/17 07:49:53;;;;;;;8.35;5.60;;;23.70;99.90;;;;;;6156498;23;20071;-90
2022/08/17 07:52:31;;;;;;;9.93;4.97;;;23.50;99.90;;;;;;6155149;23;20437;-89
2022/08/17 07:55:29;;;;;;;9.18;5.65;;;23.40;99.90;;;;;;6156916;23;20010;-89
2022/08/17 07:57:57;;;;;;;7.10;5.70;;;23.30;99.90;;;;;;6131186;23;20040;-90
2022/08/17 08:00:23;;;;;;;8.52;5.20;;;23.10;99.90;;;;;;6155393;23;20370;-89
2022/08/17 08:03:21;;;;;;;9.35;5.60;;;23.10;99.90;;;;;;6130908;23;20041;-90
2022/08/17 08:05:56;;;;;;;7.55;5.63;;;23.10;99.90;;;;;;6148094;23;20014;-89
2022/08/17 08:08:53;;;;;;;9.20;5.30;;;23.20;99.90;;;;;;6131106;23;20017;-90
2022/08/17 08:11:34;;;;;;;13.07;5.97;;;23.40;99.90;;;;;;6156361;23;20009;-90
2022/08/17 08:14:25;;;;;;;12.35;5.45;;;23.70;99.90;;;;;;6155467;23;20002;-90
2022/08/17 08:17:04;;;;;;;10.27;5.87;;;24.00;99.90;;;;;;6156839;23;20057;-91
2022/08/17 08:19:30;;;;;;;10.23;6.07;;;24.20;99.90;;;;;;6131317;23;20268;-90
2022/08/17 08:21:57;;;;;;;10.48;5.80;;;24.40;99.90;;;;;;6130846;23;20010;-90
2022/08/17 08:24:46;;;;;;;12.57;6.20;;;24.70;99.90;;;;;;6130079;23;20417;-89
2022/08/17 08:27:27;;;;;;;6.30;5.63;;;24.80;99.90;;;;;;6085981;23;20017;-90
2022/08/17 08:30:03;;;;;;;9.07;5.80;;;25.00;99.90;;;;;;6130558;23;20001;-90
2022/08/17 08:32:43;;;;;;;13.40;5.90;;;25.00;99.90;;;;;;6130743;23;20005;-87
2022/08/17 08:35:29;;;;;;;8.27;5.60;;;24.90;99.90;;;;;;6154936;23;20006;-90
2022/08/17 08:38:18;;;;;;;8.32;5.97;;;24.80;99.90;;;;;;6155219;23;20005;-90
2022/08/17 08:40:56;;;;;;;5.63;5.00;;;24.80;99.90;;;;;;6156555;23;20033;-90
2022/08/17 08:43:41;;;;;;;9.73;5.40;;;24.80;99.90;;;;;;6130182;23;20016;-90
2022/08/17 08:46:19;;;;;;;8.13;5.60;;;25.00;99.90;;;;;;6130565;23;20500;-90
2022/08/17 08:49:20;;;;;;;9.57;5.80;;;25.10;99.90;;;;;;6130760;23;20013;-90
2022/08/17 08:52:23;;;;;;;12.68;6.30;;;25.00;99.90;;;;;;6108849;23;20020;-90
2022/08/17 08:54:49;;;;;;;7.55;5.40;;;24.60;99.90;;;;;;6130174;23;20014;-91
2022/08/17 08:57:34;;;;;;;8.50;5.55;;;24.20;99.90;;;;;;6130444;23;20016;-90
2022/08/17 09:00:24;;;;;;;11.05;5.97;;;23.90;99.90;;;;;;6155025;23;20452;-90
2022/08/17 09:03:09;;;;;;;13.65;5.47;;;23.70;99.90;;;;;;6155352;23;20005;-89
2022/08/17 09:05:54;;;;;;;7.25;6.15;;;23.60;99.90;;;;;;6155211;23;20009;-90
2022/08/17 09:08:45;;;;;;;8.55;5.63;;;23.40;99.90;;;;;;6155289;23;20010;-91
2022/08/17 09:11:42;;;;;;;8.60;5.53;;;23.40;99.90;;;;;;6130234;23;20005;-90
2022/08/17 09:14:20;;;;;;;7.70;5.40;;;23.50;99.90;;;;;;6127654;23;20036;-90
2022/08/17 09:16:56;;;;;;;8.10;5.70;;;23.90;99.90;;;;;;6130047;23;20005;-91
2022/08/17 09:19:30;;;;;;;6.05;4.97;;;24.20;99.90;;;;;;6130014;23;20430;-91
2022/08/17 09:22:10;;;;;;;6.85;4.57;;;24.60;99.90;;;;;;6129905;23;20060;-92
2022/08/17 09:24:55;;;;;;;6.72;5.20;;;24.90;99.90;;;;;;6153915;23;20017;-91
2022/08/17 09:27:31;;;;;;;6.47;5.55;;;25.10;99.90;;;;;;6155809;23;20006;-91
2022/08/17 09:30:07;;;;;;;10.60;5.15;;;25.00;99.90;;;;;;6154331;23;20012;-91
2022/08/17 09:32:38;;;;;;;5.63;4.57;;;24.90;99.90;;;;;;6154556;23;20096;-91
2022/08/17 09:35:15;;;;;;;12.50;6.00;;;24.80;99.90;;;;;;6153831;23;20014;-91
2022/08/17 09:38:12;;;;;;;7.93;4.57;;;24.90;99.90;;;;;;6154628;23;20009;-90
2022/08/17 09:41:15;;;;;;;6.78;3.90;;;25.20;99.90;;;;;;6130421;23;20018;-92
2022/08/17 09:43:55;;;;;;;11.35;4.90;;;25.40;99.90;;;;;;6154405;23;20057;-91
2022/08/17 09:46:29;;;;;;;9.77;4.03;;;25.40;99.90;;;;;;6154850;23;20666;-91
2022/08/17 09:49:01;;;;;;;4.85;3.60;;;25.20;99.90;;;;;;6154199;23;20014;-91
2022/08/17 09:51:34;;;;;;;9.57;3.42;;;25.00;99.90;;;;;;6130129;23;20036;-91
2022/08/17 09:54:00;;;;;;;7.40;3.83;;;24.90;99.90;;;;;;6129910;23;20045;-91
2022/08/17 09:56:52;;;;;;;3.53;3.10;;;24.60;99.90;;;;;;6129557;23;20017;-91
2022/08/17 09:59:36;;;;;;;;;;;24.30;99.90;;;;;;6130045;23;20385;-91
2022/08/17 10:02:21;;;;;;;4.80;3.47;;;24.10;99.90;;;;;;6154714;23;19909;-88
2022/08/17 10:05:16;;;;;;;5.18;4.15;;;23.80;99.90;;;;;;6153799;23;20036;-89
2022/08/17 10:08:00;;;;;;;6.03;3.75;;;23.60;99.90;;;;;;6135868;23;20339;-89
2022/08/17 10:10:54;;;;;;;4.45;3.33;;;23.40;99.90;;;;;;6129183;23;20010;-89
2022/08/17 10:13:44;;;;;;;4.18;3.47;;;23.40;99.90;;;;;;6153502;23;20012;-90
2022/08/17 10:16:24;;;;;;;8.30;4.05;;;23.20;99.90;;;;;;6116292;23;20045;-90
2022/08/17 10:19:08;;;;;;;12.60;6.38;;;23.00;99.90;;;;;;6129616;23;20124;-89
2022/08/17 10:27:32;;;;;;;4.75;3.67;;;22.70;99.90;;;;;;6155780;23;20037;-90
2022/08/17 10:30:03;;;;;;;4.60;3.28;;;22.90;99.90;;;;;;6129613;23;20017;-90
2022/08/17 10:32:31;;;;;;;;;;;23.00;99.90;;;;;;6129865;23;20012;-89
2022/08/17 10:35:17;;;;;;;5.45;4.00;;;23.10;99.90;;;;;;6152910;23;19912;-90
2022/08/17 10:38:27;;;;;;;6.20;4.00;;;23.20;99.90;;;;;;6154164;23;20024;-90
2022/08/17 10:40:56;;;;;;;5.50;4.25;;;23.20;99.90;;;;;;6129373;23;20017;-89
2022/08/17 10:43:43;;;;;;;6.70;4.18;;;23.30;99.90;;;;;;6153812;23;20017;-90
2022/08/17 10:46:39;;;;;;;5.28;3.97;;;23.40;99.90;;;;;;6129076;23;20020;-90
2022/08/17 10:49:17;;;;;;;6.38;4.68;;;23.50;99.90;;;;;;6153316;23;20017;-90
2022/08/17 10:51:51;;;;;;;9.25;5.05;;;23.40;99.90;;;;;;6129451;23;20005;-90
2022/08/17 10:54:47;;;;;;;7.10;4.40;;;23.30;99.90;;;;;;6153948;23;20037;-90
2022/08/17 10:57:41;;;;;;;5.90;4.65;;;23.20;99.90;;;;;;6121946;23;20382;-89
2022/08/17 11:00:28;;;;;;;9.32;4.95;;;22.90;99.90;;;;;;6129316;23;20010;-89
2022/08/17 11:02:56;;;;;;;12.35;5.40;;;22.60;99.90;;;;;;6155382;23;20362;-90
2022/08/17 11:05:37;;;;;;;8.93;5.00;;;22.30;99.90;;;;;;6130745;23;20112;-90
2022/08/17 11:08:21;;;;;;;13.20;5.43;;;22.10;99.90;;;;;;6131393;23;20467;-90
2022/08/17 11:11:05;;;;;;;21.17;5.95;;;22.10;99.90;;;;;;6131189;23;20016;-90
2022/08/17 11:13:52;;;;;;;22.55;6.55;;;22.00;99.90;;;;;;6131007;23;20535;-89
2022/08/17 11:16:40;;;;;;;15.57;6.18;;;22.00;99.90;;;;;;6156411;23;20493;-89
2022/08/17 11:19:26;;;;;;;21.08;6.55;;;21.90;99.90;;;;;;6131566;23;20005;-89
2022/08/17 11:22:07;;;;;;;13.75;6.10;;;21.90;99.90;;;;;;6130754;23;20006;-88
2022/08/17 11:24:36;;;;;;;22.95;7.70;;;21.90;99.90;;;;;;6130815;23;20040;-89
2022/08/17 11:27:21;;;;;;;25.73;6.80;;;21.90;99.90;;;;;;6131449;23;20093;-89
2022/08/17 11:29:52;;;;;;;21.15;7.25;;;21.80;99.90;;;;;;6131342;23;20006;-90
2022/08/17 11:32:29;;;;;;;12.45;6.78;;;21.70;99.90;;;;;;6131525;23;20016;-90
2022/08/17 11:35:13;;;;;;;18.10;7.95;;;21.50;99.90;;;;;;6155081;23;20032;-90
2022/08/17 11:37:45;;;;;;;18.48;7.93;;;21.60;99.90;;;;;;6155508;23;20033;-90
2022/08/17 11:40:29;;;;;;;12.88;7.47;;;21.70;99.90;;;;;;6130986;23;20093;-89
2022/08/17 11:43:14;;;;;;;17.20;7.78;;;22.00;99.90;;;;;;6155675;23;20010;-90
2022/08/17 11:45:51;;;;;;;17.48;8.60;;;22.60;99.90;;;;;;6130951;23;20006;-91
2022/08/17 11:51:34;;;;;;;18.38;9.18;;;23.40;99.90;;;;;;6155942;23;20006;-90
2022/08/17 11:54:03;;;;;;;19.67;9.00;;;23.40;99.90;;;;;;6130517;23;20052;-90
2022/08/17 11:56:39;;;;;;;17.10;9.88;;;23.30;99.90;;;;;;6131176;23;20005;-90
2022/08/17 11:59:38;;;;;;;11.70;8.70;;;23.60;99.90;;;;;;6131139;23;20012;-92
2022/08/17 12:02:37;;;;;;;14.50;10.10;;;23.90;99.90;;;;;;6130995;23;20060;-92
2022/08/17 12:05:03;;;;;;;14.18;9.73;;;23.50;99.90;;;;;;6130857;23;20009;-90
2022/08/17 12:07:31;;;;;;;18.48;10.00;;;23.30;99.90;;;;;;6131173;23;20032;-90
2022/08/17 12:09:59;;;;;;;12.25;8.20;;;23.50;99.90;;;;;;6155800;23;20005;-91
2022/08/17 12:12:34;;;;;;;15.85;9.50;;;23.70;99.90;;;;;;6131353;23;20017;-91
2022/08/17 12:15:41;;;;;;;20.48;9.10;;;24.10;99.90;;;;;;6130886;23;20050;-91
2022/08/17 12:18:07;;;;;;;10.68;8.32;;;24.10;99.90;;;;;;6144196;23;20014;-89
2022/08/17 12:20:38;;;;;;;13.98;8.55;;;24.50;99.90;;;;;;6155414;23;20017;-91
2022/08/17 12:23:34;;;;;;;12.32;7.07;;;25.00;99.90;;;;;;6130634;23;20013;-92
2022/08/17 12:26:06;;;;;;;11.68;7.53;;;25.50;99.90;;;;;;6155373;23;20017;-90
2022/08/17 12:28:35;;;;;;;11.05;7.40;;;25.30;99.90;;;;;;6130430;23;20485;-91
2022/08/17 12:31:12;;;;;;;10.40;7.13;;;25.40;99.90;;;;;;6130727;23;20009;-91
2022/08/17 12:33:43;;;;;;;12.18;7.80;;;25.30;99.90;;;;;;6155224;23;20006;-91
2022/08/17 12:36:16;;;;;;;8.45;6.40;;;25.50;99.90;;;;;;6154788;23;20497;-91
2022/08/17 12:39:02;;;;;;;12.57;6.53;;;25.50;99.90;;;;;;6156701;23;20009;-91
2022/08/17 12:41:35;;;;;;;11.85;6.97;;;25.30;99.90;;;;;;6155286;23;20025;-91
2022/08/17 12:44:14;;;;;;;16.48;6.72;;;25.20;99.90;;;;;;6130487;23;20010;-91
2022/08/17 12:47:13;;;;;;;6.72;6.05;;;25.30;99.90;;;;;;6130761;23;20005;-89
2022/08/17 12:49:41;;;;;;;10.05;6.15;;;25.70;99.90;;;;;;6155372;23;20009;-91
2022/08/17 12:52:16;;;;;;;7.85;5.60;;;25.90;99.90;;;;;;6130723;23;20012;-91
2022/08/17 12:54:47;;;;;;;9.40;6.50;;;26.50;99.90;;;;;;6130556;23;20013;-91
2022/08/17 12:57:22;;;;;;;10.20;5.60;;;27.10;99.90;;;;;;6130816;23;20069;-91
2022/08/17 12:59:52;;;;;;;8.98;5.47;;;27.50;99.90;;;;;;6130925;23;20040;-91
2022/08/17 13:02:27;;;;;;;7.50;6.20;;;27.60;99.90;;;;;;6155500;23;20006;-90
2022/08/17 13:04:55;;;;;;;9.40;5.78;;;27.10;99.90;;;;;;6155870;23;20052;-90
2022/08/17 13:07:32;;;;;;;5.60;5.10;;;26.90;99.90;;;;;;6130028;23;20497;-89
2022/08/17 13:09:58;;;;;;;15.02;6.00;;;26.80;99.90;;;;;;6154800;23;20454;-90
2022/08/17 13:12:29;;;;;;;8.70;5.68;;;26.70;99.90;;;;;;6130392;23;20315;-89
2022/08/17 13:14:56;;;;;;;9.57;5.47;;;26.90;99.90;;;;;;6130199;23;20113;-91
2022/08/17 13:17:34;;;;;;;8.07;5.53;;;27.30;99.90;;;;;;6130782;23;20505;-90
2022/08/17 13:20:01;;;;;;;10.02;5.60;;;27.50;99.90;;;;;;6156546;23;20016;-90
2022/08/17 13:22:29;;;;;;;7.47;4.97;;;28.40;99.90;;;;;;6130357;23;20014;-90
2022/08/17 13:24:59;;;;;;;10.02;4.63;;;29.30;99.80;;;;;;6129762;23;20009;-91
2022/08/17 13:27:27;;;;;;;5.45;4.88;;;29.60;98.30;;;;;;6130451;23;20449;-89
2022/08/17 13:29:58;;;;;;;8.73;4.68;;;29.90;95.30;;;;;;6130558;23;20013;-89
2022/08/17 13:32:30;;;;;;;10.63;4.80;;;29.80;94.50;;;;;;6130554;23;20017;-89
2022/08/17 13:34:59;;;;;;;5.28;4.78;;;29.70;93.30;;;;;;6129807;23;20063;-88
2022/08/17 13:37:34;;;;;;;4.70;4.30;;;29.90;92.80;;;;;;6130179;23;20017;-88
2022/08/17 13:40:08;;;;;;;9.02;4.85;;;29.80;93.00;;;;;;6156256;23;20017;-88
2022/08/17 13:42:54;;;;;;;11.18;4.82;;;29.70;92.80;;;;;;6154404;23;20017;-88
2022/08/17 13:45:42;;;;;;;6.53;4.40;;;29.60;92.00;;;;;;6154714;23;20009;-87
2022/08/17 13:48:08;;;;;;;6.25;4.10;;;29.20;91.90;;;;;;6130417;23;20006;-91
2022/08/17 13:50:44;;;;;;;7.78;5.00;;;28.60;92.60;;;;;;6154883;23;20010;-91
2022/08/17 13:53:31;;;;;;;7.35;5.00;;;28.40;92.90;;;;;;6154382;23;19998;-90